createdAt,value
2022-12-05T00:01:53.604Z,3.10
2022-12-05T00:04:21.826Z,3.00
2022-12-05T00:06:49.937Z,3.10
2022-12-05T00:09:18.095Z,3.10
2022-12-05T00:11:47.250Z,3.10
2022-12-05T00:14:15.469Z,3.10
2022-12-05T00:16:45.896Z,3.10
2022-12-05T00:19:16.343Z,3.20
2022-12-05T00:21:45.132Z,3.20
2022-12-05T00:24:16.551Z,3.20
2022-12-05T00:26:45.142Z,3.20
2022-12-05T00:29:13.675Z,3.20
2022-12-05T00:31:42.616Z,3.20
2022-12-05T00:34:12.404Z,3.20
2022-12-05T00:36:42.151Z,3.20
2022-12-05T00:39:14.244Z,3.30
2022-12-05T00:41:43.506Z,3.30
2022-12-05T00:44:13.678Z,3.30
2022-12-05T00:46:42.338Z,3.30
2022-12-05T00:49:13.288Z,3.30
2022-12-05T00:51:44.286Z,3.30
2022-12-05T00:54:15.983Z,3.10
2022-12-05T00:56:45.253Z,3.20
2022-12-05T00:59:17.673Z,3.10
2022-12-05T01:01:48.317Z,3.10
2022-12-05T01:04:21.526Z,3.00
2022-12-05T01:06:50.998Z,3.00
2022-12-05T01:09:21.587Z,3.00
2022-12-05T01:11:51.013Z,3.10
2022-12-05T01:14:23.249Z,3.10
2022-12-05T01:16:54.222Z,3.10
2022-12-05T01:19:26.565Z,3.20
2022-12-05T01:21:55.859Z,3.20
2022-12-05T01:24:26.043Z,3.20
2022-12-05T01:26:54.358Z,3.20
2022-12-05T01:29:25.126Z,3.20
2022-12-05T01:31:53.887Z,3.10
2022-12-05T01:34:24.115Z,3.10
2022-12-05T01:36:52.767Z,3.10
2022-12-05T01:39:24.027Z,3.00
2022-12-05T01:41:52.584Z,3.00
2022-12-05T01:45:00.936Z,3.10
2022-12-05T01:47:32.604Z,3.10
2022-12-05T01:50:02.782Z,3.20
2022-12-05T01:52:34.546Z,3.20
2022-12-05T01:55:11.668Z,3.30
2022-12-05T01:57:40.590Z,3.20
2022-12-05T02:00:14.256Z,3.20
2022-12-05T02:02:47.440Z,3.30
2022-12-05T02:05:22.067Z,3.30
2022-12-05T02:07:50.565Z,3.30
2022-12-05T02:10:19.519Z,3.30
2022-12-05T02:12:48.104Z,3.30
2022-12-05T02:15:39.736Z,3.20
2022-12-05T02:18:35.207Z,3.30
2022-12-05T02:21:32.726Z,3.30
2022-12-05T02:24:48.286Z,3.30
2022-12-05T02:27:49.434Z,3.40
2022-12-05T02:30:21.379Z,3.40
2022-12-05T02:33:04.388Z,3.40
2022-12-05T02:35:46.321Z,3.30
2022-12-05T02:38:27.121Z,3.20
2022-12-05T02:41:08.673Z,3.30
2022-12-05T02:43:43.572Z,3.30
2022-12-05T02:46:18.438Z,3.20
2022-12-05T02:48:50.734Z,3.20
2022-12-05T02:51:25.246Z,3.30
2022-12-05T02:54:00.462Z,3.20
2022-12-05T02:56:33.157Z,3.20
2022-12-05T02:59:02.579Z,3.20
2022-12-05T03:01:33.946Z,3.20
2022-12-05T03:04:07.477Z,3.00
2022-12-05T03:06:42.292Z,3.00
2022-12-05T03:09:17.273Z,3.00
2022-12-05T03:11:50.444Z,3.00
2022-12-05T03:14:24.481Z,3.00
2022-12-05T03:16:59.394Z,3.00
2022-12-05T03:19:33.708Z,3.00
2022-12-05T03:22:09.532Z,3.00
2022-12-05T03:24:41.717Z,2.90
2022-12-05T03:27:23.878Z,2.90
2022-12-05T03:29:57.472Z,2.90
2022-12-05T03:32:37.708Z,2.80
2022-12-05T03:35:13.589Z,2.80
2022-12-05T03:37:48.833Z,2.80
2022-12-05T03:40:33.121Z,2.70
2022-12-05T03:43:10.427Z,2.70
2022-12-05T03:45:48.141Z,2.90
2022-12-05T03:48:28.886Z,2.80
2022-12-05T03:50:59.749Z,2.80
2022-12-05T03:53:35.453Z,2.80
2022-12-05T03:56:09.619Z,2.80
2022-12-05T03:58:44.843Z,2.80
2022-12-05T04:01:17.184Z,2.80
2022-12-05T04:03:52.566Z,2.70
2022-12-05T04:06:29.648Z,2.70
2022-12-05T04:09:02.856Z,2.60
2022-12-05T04:11:36.526Z,2.70
2022-12-05T04:14:12.254Z,2.70
2022-12-05T04:17:03.443Z,2.70
2022-12-05T04:19:58.943Z,2.60
2022-12-05T04:22:28.496Z,2.70
2022-12-05T04:25:18.034Z,2.70
2022-12-05T04:27:57.922Z,2.70
2022-12-05T04:30:34.162Z,2.70
2022-12-05T04:33:09.180Z,2.70
2022-12-05T04:35:44.508Z,2.70
2022-12-05T04:38:18.570Z,2.80
2022-12-05T04:40:55.966Z,2.80
2022-12-05T04:43:26.348Z,2.80
2022-12-05T04:45:58.678Z,2.80
2022-12-05T04:48:29.436Z,2.90
2022-12-05T04:51:00.133Z,2.90
2022-12-05T04:53:33.268Z,2.90
2022-12-05T04:56:05.327Z,3.00
2022-12-05T04:58:33.879Z,3.20
2022-12-05T05:01:11.175Z,3.40
2022-12-05T05:03:44.566Z,3.40
2022-12-05T05:06:15.862Z,3.30
2022-12-05T05:08:50.364Z,3.20
2022-12-05T05:11:22.763Z,3.20
2022-12-05T05:13:51.687Z,3.30
2022-12-05T05:16:23.808Z,3.10
2022-12-05T05:18:52.776Z,3.10
2022-12-05T05:21:27.702Z,3.00
2022-12-05T05:23:56.782Z,3.10
2022-12-05T05:26:26.355Z,3.10
2022-12-05T05:28:55.005Z,3.10
2022-12-05T05:31:23.261Z,3.20
2022-12-05T05:33:51.812Z,3.20
2022-12-05T05:36:22.685Z,3.20
2022-12-05T05:38:54.037Z,3.30
2022-12-05T05:41:25.507Z,3.20
2022-12-05T05:43:55.492Z,3.20
2022-12-05T05:46:27.703Z,3.20
2022-12-05T05:48:56.215Z,3.20
2022-12-05T05:51:27.990Z,3.20
2022-12-05T05:53:57.001Z,3.30
2022-12-05T05:56:25.322Z,3.30
2022-12-05T05:58:58.710Z,3.30
2022-12-05T06:01:27.475Z,3.30
2022-12-05T06:03:55.793Z,3.30
2022-12-05T06:06:27.719Z,3.30
2022-12-05T06:08:55.896Z,3.10
2022-12-05T06:11:27.214Z,3.20
2022-12-05T06:13:57.600Z,3.20
2022-12-05T06:16:26.482Z,3.10
2022-12-05T06:18:55.042Z,3.00
2022-12-05T06:21:23.752Z,3.00
2022-12-05T06:23:53.879Z,3.00
2022-12-05T06:26:23.374Z,3.00
2022-12-05T06:28:51.753Z,3.10
2022-12-05T06:31:23.845Z,3.10
2022-12-05T06:33:52.120Z,3.20
2022-12-05T06:36:22.949Z,3.40
2022-12-05T06:38:52.508Z,3.40
2022-12-05T06:41:24.477Z,3.40
2022-12-05T06:44:00.129Z,3.50
2022-12-05T06:46:30.209Z,3.40
2022-12-05T06:49:00.922Z,3.40
2022-12-05T06:51:29.977Z,3.40
2022-12-05T06:54:02.747Z,3.50
2022-12-05T06:56:31.454Z,3.70
2022-12-05T06:59:00.085Z,3.80
2022-12-05T07:01:40.968Z,3.80
2022-12-05T07:04:15.566Z,3.80
2022-12-05T07:06:50.613Z,3.90
2022-12-05T07:09:43.515Z,4.00
2022-12-05T07:12:12.184Z,4.10
2022-12-05T07:14:47.575Z,4.10
2022-12-05T07:17:17.320Z,4.00
2022-12-05T07:19:45.582Z,3.80
2022-12-05T07:22:15.889Z,3.80
2022-12-05T07:24:46.672Z,3.60
2022-12-05T07:27:20.582Z,3.50
2022-12-05T07:29:52.243Z,3.50
2022-12-05T07:32:20.437Z,3.50
2022-12-05T07:34:53.513Z,3.50
2022-12-05T07:37:23.791Z,3.40
2022-12-05T07:39:54.234Z,3.40
2022-12-05T07:42:22.348Z,3.40
2022-12-05T07:44:50.531Z,3.40
2022-12-05T07:47:18.792Z,3.40
2022-12-05T07:49:47.019Z,3.40
2022-12-05T07:52:15.255Z,3.50
2022-12-05T07:54:43.343Z,3.40
2022-12-05T07:57:12.800Z,3.40
2022-12-05T07:59:40.861Z,3.40
2022-12-05T08:02:11.298Z,3.40
2022-12-05T08:04:39.469Z,3.40
2022-12-05T08:07:07.548Z,3.40
2022-12-05T08:09:35.570Z,3.40
2022-12-05T08:12:03.638Z,3.40
2022-12-05T08:14:33.226Z,3.50
2022-12-05T08:17:01.444Z,3.50
2022-12-05T08:19:29.554Z,3.50
2022-12-05T08:21:57.667Z,3.50
2022-12-05T08:24:25.894Z,3.60
2022-12-05T08:26:53.960Z,3.50
2022-12-05T08:29:23.661Z,3.60
2022-12-05T08:31:53.527Z,3.60
2022-12-05T08:34:22.081Z,3.70
2022-12-05T08:36:50.420Z,3.70
2022-12-05T08:39:20.537Z,3.70
2022-12-05T08:41:49.957Z,3.70
2022-12-05T08:44:18.446Z,3.70
2022-12-05T08:46:50.795Z,3.60
2022-12-05T08:49:20.685Z,3.60
2022-12-05T08:51:48.960Z,3.50
2022-12-05T08:54:17.260Z,3.50
2022-12-05T08:56:45.391Z,3.50
2022-12-05T08:59:13.650Z,3.50
2022-12-05T09:01:42.218Z,3.50
2022-12-05T09:04:12.300Z,3.50
2022-12-05T09:06:42.736Z,3.40
2022-12-05T09:09:13.315Z,3.40
2022-12-05T09:11:46.621Z,3.50
2022-12-05T09:14:15.971Z,3.50
2022-12-05T09:16:47.680Z,3.50
2022-12-05T09:19:18.652Z,3.60
2022-12-05T09:21:48.136Z,3.60
2022-12-05T09:24:16.381Z,3.70
2022-12-05T09:26:44.801Z,3.70
2022-12-05T09:29:17.297Z,3.70
2022-12-05T09:31:49.870Z,3.80
2022-12-05T09:34:19.992Z,3.80
2022-12-05T09:36:55.711Z,3.70
2022-12-05T09:39:29.882Z,3.80
2022-12-05T09:42:20.170Z,3.80
2022-12-05T09:45:19.569Z,3.90
2022-12-05T09:47:58.063Z,4.00
2022-12-05T09:50:28.665Z,4.00
2022-12-05T09:53:15.665Z,4.10
2022-12-05T09:55:49.362Z,4.10
2022-12-05T09:58:28.324Z,4.10
2022-12-05T10:01:04.471Z,4.20
2022-12-05T10:03:43.982Z,4.20
2022-12-05T10:06:21.959Z,4.20
2022-12-05T10:09:15.702Z,4.20
2022-12-05T10:11:57.591Z,4.30
2022-12-05T10:14:39.253Z,4.30
2022-12-05T10:17:20.160Z,4.40
2022-12-05T10:19:52.384Z,4.40
2022-12-05T10:22:28.934Z,4.40
2022-12-05T10:25:05.371Z,4.40
2022-12-05T10:27:40.505Z,4.40
2022-12-05T10:30:16.792Z,4.40
2022-12-05T10:32:54.680Z,4.40
2022-12-05T10:35:26.300Z,4.40
2022-12-05T10:37:58.049Z,4.40
2022-12-05T10:40:38.713Z,4.50
2022-12-05T10:43:09.215Z,4.50
2022-12-05T10:45:44.700Z,4.50
2022-12-05T10:48:16.378Z,4.50
2022-12-05T10:50:48.589Z,4.60
2022-12-05T10:53:22.243Z,4.50
2022-12-05T10:56:28.091Z,4.60
2022-12-05T10:58:55.854Z,4.60
2022-12-05T11:01:26.948Z,4.60
2022-12-05T11:03:59.852Z,4.60
2022-12-05T11:06:30.495Z,4.70
2022-12-05T11:09:05.332Z,4.60
2022-12-05T11:11:35.731Z,4.60
2022-12-05T11:14:06.719Z,4.50
2022-12-05T11:16:38.074Z,4.50
2022-12-05T11:19:26.956Z,4.50
2022-12-05T11:21:56.492Z,4.50
2022-12-05T11:24:29.737Z,4.50
2022-12-05T11:27:01.674Z,4.50
2022-12-05T11:29:35.525Z,4.50
2022-12-05T11:32:05.838Z,4.50
2022-12-05T11:34:42.146Z,4.50
2022-12-05T11:37:18.336Z,4.50
2022-12-05T11:39:46.638Z,4.50
2022-12-05T11:42:35.418Z,4.50
2022-12-05T11:45:29.244Z,4.50
2022-12-05T11:48:28.409Z,4.50
2022-12-05T11:51:22.146Z,4.50
2022-12-05T11:54:41.702Z,4.50
2022-12-05T11:57:24.042Z,4.50
2022-12-05T12:00:16.565Z,4.50
2022-12-05T12:03:28.484Z,4.50
2022-12-05T12:06:20.840Z,4.50
2022-12-05T12:09:12.188Z,4.50
2022-12-05T12:11:47.494Z,4.50
2022-12-05T12:14:28.857Z,4.50
2022-12-05T12:17:15.782Z,4.50
2022-12-05T12:20:09.754Z,4.60
2022-12-05T12:22:56.863Z,4.60
2022-12-05T12:25:43.030Z,4.60
2022-12-05T12:28:32.271Z,4.60
2022-12-05T12:31:24.468Z,4.60
2022-12-05T12:34:06.471Z,4.60
2022-12-05T12:36:43.799Z,4.60
2022-12-05T12:39:34.245Z,4.60
2022-12-05T12:42:23.187Z,4.60
2022-12-05T12:45:26.520Z,4.70
2022-12-05T12:48:14.217Z,4.60
2022-12-05T12:50:46.939Z,4.60
2022-12-05T12:53:44.606Z,4.60
2022-12-05T12:56:30.874Z,4.60
2022-12-05T12:59:23.497Z,4.70
2022-12-05T13:02:03.611Z,4.60
2022-12-05T13:04:42.260Z,4.70
2022-12-05T13:07:16.602Z,4.60
2022-12-05T13:09:51.970Z,4.70
2022-12-05T13:12:27.878Z,4.70
2022-12-05T13:15:06.463Z,4.70
2022-12-05T13:17:35.302Z,4.70
2022-12-05T13:20:06.361Z,4.70
2022-12-05T13:22:34.782Z,4.70
2022-12-05T13:25:02.863Z,4.70
2022-12-05T13:27:31.540Z,4.70
2022-12-05T13:30:03.658Z,4.70
2022-12-05T13:32:36.169Z,4.80
2022-12-05T13:35:12.402Z,4.80
2022-12-05T13:38:05.826Z,4.80
2022-12-05T13:40:55.408Z,4.80
2022-12-05T13:43:26.638Z,4.80
2022-12-05T13:46:06.271Z,4.70
2022-12-05T13:48:38.077Z,4.70
2022-12-05T13:51:13.389Z,4.80
2022-12-05T13:53:46.336Z,4.80
2022-12-05T13:56:28.807Z,4.80
2022-12-05T13:58:58.482Z,4.80
2022-12-05T14:01:55.671Z,4.80
2022-12-05T14:04:51.450Z,4.80
2022-12-05T14:07:43.557Z,4.70
2022-12-05T14:10:16.564Z,4.70
2022-12-05T14:12:52.124Z,4.70
2022-12-05T14:15:33.746Z,4.70
2022-12-05T14:18:10.903Z,4.70
2022-12-05T14:20:55.476Z,4.80
2022-12-05T14:24:01.929Z,4.70
2022-12-05T14:26:54.873Z,4.70
2022-12-05T14:29:39.490Z,4.60
2022-12-05T14:32:23.399Z,4.50
2022-12-05T14:34:59.407Z,4.50
2022-12-05T14:37:34.507Z,4.50
2022-12-05T14:40:20.847Z,4.50
2022-12-05T14:42:56.604Z,4.40
2022-12-05T14:45:54.420Z,4.40
2022-12-05T14:48:32.752Z,4.40
2022-12-05T14:51:02.255Z,4.30
2022-12-05T14:53:39.152Z,4.20
2022-12-05T14:56:18.370Z,4.10
2022-12-05T14:58:55.701Z,4.10
2022-12-05T15:01:28.448Z,4.10
2022-12-05T15:04:19.596Z,4.00
2022-12-05T15:06:54.542Z,4.00
2022-12-05T15:09:45.030Z,4.00
2022-12-05T15:12:20.280Z,3.90
2022-12-05T15:15:00.733Z,3.90
2022-12-05T15:17:39.505Z,3.90
2022-12-05T15:20:17.248Z,3.80
2022-12-05T15:22:45.397Z,3.80
2022-12-05T15:25:30.403Z,3.70
2022-12-05T15:28:19.098Z,3.70
2022-12-05T15:30:57.016Z,3.60
2022-12-05T15:33:27.363Z,3.60
2022-12-05T15:35:57.330Z,3.50
2022-12-05T15:38:31.731Z,3.50
2022-12-05T15:40:59.850Z,3.50
2022-12-05T15:43:32.574Z,3.40
2022-12-05T15:46:23.813Z,3.40
2022-12-05T15:48:53.311Z,3.50
2022-12-05T15:51:28.291Z,3.40
2022-12-05T15:54:02.719Z,3.50
2022-12-05T15:56:36.295Z,3.40
2022-12-05T15:59:14.794Z,3.50
2022-12-05T16:01:47.626Z,3.50
2022-12-05T16:04:29.215Z,3.50
2022-12-05T16:07:02.220Z,3.50
2022-12-05T16:09:34.754Z,3.50
2022-12-05T16:12:07.993Z,3.50
2022-12-05T16:17:38.611Z,3.50
2022-12-05T16:20:22.985Z,3.50
2022-12-05T16:22:54.420Z,3.50
2022-12-05T16:25:27.409Z,3.60
2022-12-05T16:28:14.905Z,3.50
2022-12-05T16:30:58.396Z,3.60
2022-12-05T16:33:29.019Z,3.60
2022-12-05T16:35:58.142Z,3.60
2022-12-05T16:38:29.890Z,3.60
2022-12-05T16:41:01.036Z,3.60
2022-12-05T16:43:45.856Z,3.60
2022-12-05T16:46:45.667Z,3.60
2022-12-05T16:49:42.697Z,3.60
2022-12-05T16:52:16.664Z,3.60
2022-12-05T16:54:50.441Z,3.70
2022-12-05T16:57:19.097Z,3.70
2022-12-05T16:59:49.463Z,3.70
2022-12-05T17:02:19.943Z,3.70
2022-12-05T17:04:48.111Z,3.70
2022-12-05T17:07:16.194Z,3.60
2022-12-05T17:09:44.321Z,3.60
2022-12-05T17:12:24.098Z,3.70
2022-12-05T17:14:52.242Z,3.70
2022-12-05T17:17:21.778Z,3.70
2022-12-05T17:19:49.832Z,3.60
2022-12-05T17:22:18.352Z,3.60
2022-12-05T17:24:46.612Z,3.60
2022-12-05T17:27:14.867Z,3.60
2022-12-05T17:29:42.946Z,3.60
2022-12-05T17:32:11.727Z,3.60
2022-12-05T17:34:41.126Z,3.60
2022-12-05T17:37:09.188Z,3.50
2022-12-05T17:39:37.336Z,3.60
2022-12-05T17:42:05.644Z,3.60
2022-12-05T17:44:33.913Z,3.60
2022-12-05T17:47:07.694Z,3.60
2022-12-05T17:49:36.344Z,3.60
2022-12-05T17:52:22.343Z,3.70
2022-12-05T17:54:51.257Z,3.70
2022-12-05T17:57:19.387Z,3.70
2022-12-05T17:59:47.477Z,3.60
2022-12-05T18:02:17.375Z,3.60
2022-12-05T18:04:45.455Z,3.60
2022-12-05T18:07:20.208Z,3.60
2022-12-05T18:09:48.307Z,3.60
2022-12-05T18:12:16.358Z,3.60
2022-12-05T18:14:44.438Z,3.60
2022-12-05T18:17:12.544Z,3.60
2022-12-05T18:19:42.577Z,3.50
2022-12-05T18:22:10.674Z,3.50
2022-12-05T18:24:40.223Z,3.50
2022-12-05T18:27:08.522Z,3.50
2022-12-05T18:29:36.577Z,3.60
2022-12-05T18:32:28.940Z,3.60
2022-12-05T18:34:58.972Z,3.60
2022-12-05T18:37:28.140Z,3.60
2022-12-05T18:39:57.820Z,3.60
2022-12-05T18:42:25.989Z,3.60
2022-12-05T18:44:54.166Z,3.60
2022-12-05T18:47:25.360Z,3.60
2022-12-05T18:49:56.250Z,3.60
2022-12-05T18:52:24.759Z,3.60
2022-12-05T18:55:09.156Z,3.60
2022-12-05T18:57:43.709Z,3.70
2022-12-05T19:00:14.113Z,3.60
2022-12-05T19:02:43.290Z,3.60
2022-12-05T19:05:11.463Z,3.70
2022-12-05T19:07:39.621Z,3.70
2022-12-05T19:10:10.410Z,3.60
2022-12-05T19:12:39.003Z,3.60
2022-12-05T19:15:10.095Z,3.60
2022-12-05T19:17:38.333Z,3.60
2022-12-05T19:20:08.486Z,3.60
2022-12-05T19:22:36.548Z,3.60
2022-12-05T19:25:05.378Z,3.60
2022-12-05T19:27:33.420Z,3.60
2022-12-05T19:30:09.191Z,3.60
2022-12-05T19:32:40.594Z,3.60
2022-12-05T19:35:10.610Z,3.60
2022-12-05T19:37:38.704Z,3.60
2022-12-05T19:40:09.156Z,3.60
2022-12-05T19:42:37.274Z,3.60
2022-12-05T19:45:10.349Z,3.60
2022-12-05T19:47:41.779Z,3.70
2022-12-05T19:50:10.570Z,3.60
2022-12-05T19:52:38.638Z,3.70
2022-12-05T19:55:10.938Z,3.60
2022-12-05T19:57:38.977Z,3.50
2022-12-05T20:00:09.960Z,3.50
2022-12-05T20:02:43.786Z,3.60
2022-12-05T20:05:13.683Z,3.50
2022-12-05T20:07:41.862Z,3.50
2022-12-05T20:10:11.486Z,3.60
2022-12-05T20:12:39.929Z,3.60
2022-12-05T20:15:10.415Z,3.60
2022-12-05T20:17:38.576Z,3.50
2022-12-05T20:20:09.799Z,3.50
2022-12-05T20:22:37.894Z,3.60
2022-12-05T20:25:06.803Z,3.50
2022-12-05T20:27:35.827Z,3.60
2022-12-05T20:30:04.164Z,3.60
2022-12-05T20:32:32.590Z,3.60
2022-12-05T20:35:03.430Z,3.70
2022-12-05T20:37:35.494Z,3.70
2022-12-05T20:40:05.063Z,3.70
2022-12-05T20:42:33.166Z,3.60
2022-12-05T20:45:01.366Z,3.60
2022-12-05T20:47:29.451Z,3.60
2022-12-05T20:49:57.873Z,3.60
2022-12-05T20:52:26.077Z,3.60
2022-12-05T20:54:55.519Z,3.50
2022-12-05T20:57:23.567Z,3.60
2022-12-05T20:59:51.595Z,3.60
2022-12-05T21:02:19.764Z,3.60
2022-12-05T21:04:47.801Z,3.70
2022-12-05T21:07:16.129Z,3.70
2022-12-05T21:09:45.071Z,3.70
2022-12-05T21:12:15.667Z,3.80
2022-12-05T21:14:44.002Z,3.80
2022-12-05T21:17:13.697Z,3.80
2022-12-05T21:19:41.740Z,3.80
2022-12-05T21:22:09.808Z,3.90
2022-12-05T21:24:38.051Z,3.90
2022-12-05T21:27:06.442Z,3.90
2022-12-05T21:29:35.866Z,3.80
2022-12-05T21:32:04.125Z,3.80
2022-12-05T21:34:32.287Z,3.80
2022-12-05T21:37:01.087Z,3.80
2022-12-05T21:39:29.506Z,3.80
2022-12-05T21:41:58.227Z,3.70
2022-12-05T21:44:26.447Z,3.60
2022-12-05T21:46:56.122Z,3.70
2022-12-05T21:49:24.569Z,3.70
2022-12-05T21:51:52.650Z,3.60
2022-12-05T21:54:20.702Z,3.70
2022-12-05T21:56:48.776Z,3.60
2022-12-05T21:59:16.831Z,3.60
2022-12-05T22:01:46.378Z,3.60
2022-12-05T22:04:15.972Z,3.60
2022-12-05T22:06:44.031Z,3.60
2022-12-05T22:09:12.092Z,3.60
2022-12-05T22:11:40.239Z,3.60
2022-12-05T22:14:08.531Z,3.60
2022-12-05T22:16:36.893Z,3.60
2022-12-05T22:19:05.302Z,3.60
2022-12-05T22:21:34.769Z,3.60
2022-12-05T22:24:02.925Z,3.50
2022-12-05T22:26:31.545Z,3.60
2022-12-05T22:28:59.683Z,3.60
2022-12-05T22:31:27.827Z,3.60
2022-12-05T22:33:55.936Z,3.60
2022-12-05T22:36:24.309Z,3.60
2022-12-05T22:38:53.829Z,3.60
2022-12-05T22:41:25.709Z,3.60
2022-12-05T22:43:57.794Z,3.60
2022-12-05T22:46:28.232Z,3.70
2022-12-05T22:48:56.570Z,3.70
2022-12-05T22:51:27.337Z,3.60
2022-12-05T22:53:57.768Z,3.70
2022-12-05T22:56:28.981Z,3.70
2022-12-05T22:58:59.003Z,3.80
2022-12-05T23:01:30.341Z,3.80
2022-12-05T23:04:01.284Z,3.80
2022-12-05T23:06:31.123Z,3.80
2022-12-05T23:09:01.453Z,3.70
2022-12-05T23:11:30.770Z,3.70
2022-12-05T23:14:02.354Z,3.70
2022-12-05T23:16:33.389Z,3.80
2022-12-05T23:19:05.078Z,3.80
2022-12-05T23:21:36.588Z,3.80
2022-12-05T23:24:09.085Z,3.80
2022-12-05T23:26:41.160Z,3.90
2022-12-05T23:29:11.948Z,4.00
2022-12-05T23:31:40.528Z,4.00
2022-12-05T23:34:09.967Z,4.00
2022-12-05T23:36:39.128Z,4.10
2022-12-05T23:39:08.825Z,4.10
2022-12-05T23:41:37.068Z,4.10
2022-12-05T23:44:06.227Z,4.10
2022-12-05T23:46:40.076Z,4.10
2022-12-05T23:49:22.869Z,4.00
2022-12-05T23:51:52.119Z,4.00
2022-12-05T23:54:21.717Z,3.90
2022-12-05T23:56:49.998Z,3.90
2022-12-05T23:59:18.291Z,3.80
